Time;durP1;ratioP1;P1;durP2;ratioP2;P2;SDS_P1;SDS_P2;PMS_P1;PMS_P2;Temp;Humidity;BMP_temperature;BMP_pressure;BME280_temperature;BME280_humidity;BME280_pressure;Samples;Min_cycle;Max_cycle;Signal;HPM_P1;HPM_P2
2023/03/08 00:01:09;;;;;;;7.97;4.10;;;7.10;99.90;;;;;;7392360;19;20157;-76
2023/03/08 00:03:35;;;;;;;8.97;4.27;;;7.10;99.90;;;;;;7386716;19;20651;-77
2023/03/08 00:06:06;;;;;;;6.83;4.27;;;7.00;99.90;;;;;;7390404;19;20157;-77
2023/03/08 00:08:31;;;;;;;8.63;4.43;;;7.00;99.90;;;;;;7391019;19;20508;-77
2023/03/08 00:10:57;;;;;;;7.47;5.10;;;7.20;99.90;;;;;;7390611;19;20134;-76
2023/03/08 00:13:23;;;;;;;8.27;4.80;;;7.00;99.90;;;;;;7390779;19;20146;-77
2023/03/08 00:15:49;;;;;;;9.10;4.40;;;7.20;99.90;;;;;;7388392;19;20177;-76
2023/03/08 00:18:15;;;;;;;9.60;4.57;;;7.30;99.90;;;;;;7388791;19;20158;-76
2023/03/08 00:20:41;;;;;;;8.07;4.57;;;7.40;99.90;;;;;;7388192;19;20154;-75
2023/03/08 00:23:08;;;;;;;10.60;4.47;;;7.50;99.90;;;;;;7388465;19;20134;-76
2023/03/08 00:25:34;;;;;;;9.50;4.10;;;7.40;99.90;;;;;;7386623;19;20164;-76
2023/03/08 00:28:00;;;;;;;6.17;4.70;;;7.30;99.90;;;;;;7390625;19;20150;-76
2023/03/08 00:30:26;;;;;;;7.13;4.40;;;7.30;99.90;;;;;;7389621;19;20381;-76
2023/03/08 00:32:51;;;;;;;6.60;4.43;;;7.30;99.90;;;;;;7388772;19;20143;-76
2023/03/08 00:35:20;;;;;;;10.77;4.80;;;7.20;99.90;;;;;;7388831;19;20594;-76
2023/03/08 00:37:45;;;;;;;5.90;3.90;;;7.30;99.90;;;;;;7388455;19;20150;-77
2023/03/08 00:40:12;;;;;;;7.87;4.80;;;7.30;99.90;;;;;;7389270;19;20622;-76
2023/03/08 00:42:38;;;;;;;7.83;4.80;;;7.00;99.90;;;;;;7386755;19;20151;-76
2023/03/08 00:45:04;;;;;;;8.53;4.60;;;6.90;99.90;;;;;;7389151;19;20162;-77
2023/03/08 00:47:30;;;;;;;9.37;4.60;;;6.90;99.90;;;;;;7388083;19;20508;-77
2023/03/08 00:49:56;;;;;;;7.20;4.53;;;7.00;99.90;;;;;;7388813;19;20143;-74
2023/03/08 00:52:22;;;;;;;8.10;4.80;;;7.20;99.90;;;;;;7390062;19;20157;-77
2023/03/08 00:54:47;;;;;;;8.33;4.67;;;7.40;99.90;;;;;;7387160;19;20148;-76
2023/03/08 00:57:15;;;;;;;8.27;4.10;;;7.40;99.90;;;;;;7388686;19;20139;-76
2023/03/08 00:59:43;;;;;;;9.40;5.03;;;7.40;99.90;;;;;;7387074;19;20478;-76
2023/03/08 01:02:09;;;;;;;8.87;4.80;;;7.20;99.90;;;;;;7390519;19;20162;-77
2023/03/08 01:04:35;;;;;;;6.97;4.30;;;7.10;99.90;;;;;;7385551;19;20174;-76
2023/03/08 01:07:00;;;;;;;8.60;4.80;;;6.80;99.90;;;;;;7389692;19;20134;-76
2023/03/08 01:09:26;;;;;;;7.63;4.70;;;7.00;99.90;;;;;;7385720;19;20147;-76
2023/03/08 01:11:53;;;;;;;7.13;4.63;;;7.00;99.90;;;;;;7389141;19;20143;-75
2023/03/08 01:14:19;;;;;;;8.30;5.70;;;7.10;99.90;;;;;;7387125;19;20155;-77
2023/03/08 01:16:45;;;;;;;7.90;4.67;;;7.00;99.90;;;;;;7387735;19;20137;-76
2023/03/08 01:19:10;;;;;;;7.67;4.50;;;6.90;99.90;;;;;;7386533;19;20142;-76
2023/03/08 01:21:36;;;;;;;8.50;4.90;;;6.90;99.90;;;;;;7387421;19;20146;-76
2023/03/08 01:24:02;;;;;;;8.50;5.23;;;7.00;99.90;;;;;;7384259;19;21094;-77
2023/03/08 01:26:28;;;;;;;9.00;4.77;;;7.00;99.90;;;;;;7388921;19;20145;-76
2023/03/08 01:28:55;;;;;;;9.13;4.90;;;7.00;99.90;;;;;;7387005;19;20138;-76
2023/03/08 01:31:28;;;;;;;9.60;5.23;;;7.00;99.90;;;;;;7389674;19;20170;-76
2023/03/08 01:33:54;;;;;;;9.50;5.07;;;6.90;99.90;;;;;;7386831;19;20161;-76
2023/03/08 01:36:23;;;;;;;10.00;5.37;;;6.50;99.90;;;;;;7384361;19;20134;-76
2023/03/08 01:38:49;;;;;;;7.40;4.93;;;6.60;99.90;;;;;;7401846;19;20157;-76
2023/03/08 01:41:27;;;;;;;11.20;5.07;;;6.50;99.90;;;;;;7401102;19;20138;-76
2023/03/08 01:43:53;;;;;;;12.57;5.40;;;6.70;99.90;;;;;;7397897;19;20161;-75
2023/03/08 01:46:22;;;;;;;10.03;5.47;;;6.60;99.90;;;;;;7404465;19;20461;-77
2023/03/08 01:49:08;;;;;;;9.73;4.73;;;6.80;99.90;;;;;;7400740;19;20165;-75
2023/03/08 01:51:44;;;;;;;10.10;5.13;;;6.90;99.90;;;;;;7400577;19;20138;-77
2023/03/08 01:54:19;;;;;;;8.40;5.00;;;6.70;99.90;;;;;;7402717;19;20161;-76
2023/03/08 01:56:48;;;;;;;9.97;5.53;;;6.30;99.90;;;;;;7397074;19;20152;-75
2023/03/08 01:59:14;;;;;;;10.20;5.40;;;6.30;99.90;;;;;;7399173;19;20145;-76
2023/03/08 02:01:40;;;;;;;9.17;5.40;;;6.40;99.90;;;;;;7398436;19;20142;-76
2023/03/08 02:04:07;;;;;;;8.93;5.53;;;6.40;99.90;;;;;;7391898;19;20142;-77
2023/03/08 02:06:33;;;;;;;8.43;5.13;;;6.40;99.90;;;;;;7402083;19;20630;-76
2023/03/08 02:09:03;;;;;;;7.47;5.20;;;6.30;99.90;;;;;;7400401;19;20166;-76
2023/03/08 02:11:32;;;;;;;9.17;5.23;;;6.50;99.90;;;;;;7402145;19;20131;-76
2023/03/08 02:13:58;;;;;;;11.97;4.60;;;6.60;99.90;;;;;;7400520;19;20134;-77
2023/03/08 02:16:24;;;;;;;13.77;5.53;;;6.80;99.90;;;;;;7401494;19;20896;-76
2023/03/08 02:18:56;;;;;;;7.53;5.17;;;6.50;99.90;;;;;;7401010;19;20146;-77
2023/03/08 02:21:23;;;;;;;8.97;5.37;;;6.70;99.90;;;;;;7400857;19;20142;-76
2023/03/08 02:23:49;;;;;;;8.17;5.50;;;6.80;99.90;;;;;;7399601;19;20160;-77
2023/03/08 02:26:15;;;;;;;9.77;4.97;;;6.80;99.90;;;;;;7399766;19;20126;-76
2023/03/08 02:28:41;;;;;;;7.73;5.17;;;6.50;99.90;;;;;;7399677;19;20649;-76
2023/03/08 02:31:07;;;;;;;11.27;5.53;;;6.60;99.90;;;;;;7396372;19;20149;-76
2023/03/08 02:33:33;;;;;;;8.00;5.30;;;6.40;99.90;;;;;;7400402;19;20123;-76
2023/03/08 02:36:02;;;;;;;11.13;5.00;;;6.50;99.90;;;;;;7399685;19;20123;-76
2023/03/08 02:38:28;;;;;;;11.43;5.23;;;6.70;99.90;;;;;;7400667;19;20133;-76
2023/03/08 02:40:55;;;;;;;9.67;5.17;;;6.60;99.90;;;;;;7399728;19;20176;-75
2023/03/08 02:43:21;;;;;;;11.90;5.20;;;6.60;99.90;;;;;;7397122;19;20141;-76
2023/03/08 02:45:47;;;;;;;10.10;5.40;;;6.30;99.90;;;;;;7400133;19;20474;-76
2023/03/08 02:48:14;;;;;;;10.63;5.50;;;6.50;99.90;;;;;;7397781;19;20147;-76
2023/03/08 02:50:39;;;;;;;11.70;5.60;;;6.80;99.90;;;;;;7392894;19;20147;-75
2023/03/08 02:53:06;;;;;;;7.40;4.93;;;6.90;99.90;;;;;;7387091;19;20154;-76
2023/03/08 02:55:35;;;;;;;11.27;5.80;;;6.70;99.90;;;;;;7394621;19;20127;-75
2023/03/08 02:58:06;;;;;;;8.47;4.93;;;6.70;99.90;;;;;;7391051;19;20131;-76
2023/03/08 03:00:32;;;;;;;7.57;5.13;;;6.80;99.90;;;;;;7393188;19;20169;-75
2023/03/08 03:02:57;;;;;;;10.00;5.10;;;6.70;99.90;;;;;;7389727;19;20159;-76
2023/03/08 03:05:23;;;;;;;10.10;6.10;;;6.80;99.90;;;;;;7392865;19;20139;-75
2023/03/08 03:07:49;;;;;;;10.30;5.90;;;6.80;99.90;;;;;;7394763;19;20138;-76
2023/03/08 03:10:15;;;;;;;8.47;4.90;;;6.60;99.90;;;;;;7392698;19;20210;-76
2023/03/08 03:12:42;;;;;;;9.80;4.90;;;6.50;99.90;;;;;;7392903;19;20153;-75
2023/03/08 03:15:10;;;;;;;9.67;5.30;;;6.60;99.90;;;;;;7395465;19;20191;-75
2023/03/08 03:17:36;;;;;;;8.07;4.47;;;6.70;99.90;;;;;;7391672;19;20138;-77
2023/03/08 03:20:05;;;;;;;10.83;4.93;;;6.60;99.90;;;;;;7392802;19;20584;-76
2023/03/08 03:22:31;;;;;;;8.87;4.93;;;6.50;99.90;;;;;;7390299;19;20135;-76
2023/03/08 03:24:57;;;;;;;8.90;4.83;;;6.50;99.90;;;;;;7391389;19;20138;-77
2023/03/08 03:27:23;;;;;;;9.70;5.20;;;6.40;99.90;;;;;;7391272;19;20159;-75
2023/03/08 03:29:49;;;;;;;7.63;4.63;;;6.50;99.90;;;;;;7393539;19;20139;-76
2023/03/08 03:32:15;;;;;;;6.87;4.27;;;6.60;99.90;;;;;;7391183;19;20159;-77
2023/03/08 03:34:41;;;;;;;12.03;5.17;;;6.70;99.90;;;;;;7392732;19;20149;-76
2023/03/08 03:37:06;;;;;;;10.77;5.37;;;6.80;99.90;;;;;;7391370;19;20146;-76
2023/03/08 03:39:37;;;;;;;8.57;4.73;;;6.80;99.90;;;;;;7391254;19;20168;-75
2023/03/08 03:42:05;;;;;;;9.37;4.50;;;6.90;99.90;;;;;;7391151;19;20139;-76
2023/03/08 03:44:30;;;;;;;9.60;4.90;;;6.60;99.90;;;;;;7392320;19;20139;-76
2023/03/08 03:46:56;;;;;;;9.20;5.60;;;6.60;99.90;;;;;;7390180;19;20162;-76
2023/03/08 03:49:22;;;;;;;9.93;5.40;;;6.70;99.90;;;;;;7392204;19;20149;-76
2023/03/08 03:51:48;;;;;;;6.70;4.37;;;6.80;99.90;;;;;;7391376;19;20204;-74
2023/03/08 03:54:14;;;;;;;10.03;4.87;;;6.90;99.90;;;;;;7390227;19;20139;-77
2023/03/08 03:56:40;;;;;;;10.07;4.80;;;6.80;99.90;;;;;;7391878;19;20606;-77
2023/03/08 03:59:06;;;;;;;7.50;4.67;;;6.80;99.90;;;;;;7390806;19;20138;-75
2023/03/08 04:01:32;;;;;;;9.40;4.83;;;6.80;99.90;;;;;;7391825;19;20139;-76
2023/03/08 04:03:58;;;;;;;8.53;5.10;;;6.90;99.90;;;;;;7386886;19;20225;-77
2023/03/08 04:06:25;;;;;;;8.53;4.80;;;6.90;99.90;;;;;;7391979;19;20525;-76
2023/03/08 04:08:53;;;;;;;7.93;4.80;;;6.60;99.90;;;;;;7389574;19;20472;-76
2023/03/08 04:11:22;;;;;;;8.77;4.60;;;6.60;99.90;;;;;;7391580;19;20174;-75
2023/03/08 04:13:48;;;;;;;8.37;4.97;;;6.70;99.90;;;;;;7393208;19;20148;-76
2023/03/08 04:16:17;;;;;;;9.90;5.03;;;6.70;99.90;;;;;;7390255;19;20528;-76
2023/03/08 04:18:43;;;;;;;8.47;5.30;;;6.70;99.90;;;;;;7390374;19;20127;-76
2023/03/08 04:21:09;;;;;;;7.93;4.57;;;6.80;99.90;;;;;;7388697;19;20143;-76
2023/03/08 04:23:36;;;;;;;9.77;5.13;;;6.80;99.90;;;;;;7389289;19;20139;-76
2023/03/08 04:26:03;;;;;;;7.53;4.73;;;6.90;99.90;;;;;;7388508;19;20135;-76
2023/03/08 04:28:29;;;;;;;9.87;4.47;;;6.70;99.90;;;;;;7392433;19;20130;-77
2023/03/08 04:30:55;;;;;;;9.00;5.27;;;6.70;99.90;;;;;;7391891;19;20155;-76
2023/03/08 04:33:22;;;;;;;10.73;4.93;;;6.80;99.90;;;;;;7388071;19;20150;-75
2023/03/08 04:35:48;;;;;;;8.33;4.77;;;7.00;99.90;;;;;;7388683;19;20612;-76
2023/03/08 04:38:14;;;;;;;9.27;4.70;;;7.00;99.90;;;;;;7387067;19;20146;-76
2023/03/08 04:41:04;;;;;;;7.40;4.63;;;6.70;99.90;;;;;;7387919;19;20139;-77
2023/03/08 04:43:31;;;;;;;7.30;5.00;;;6.70;99.90;;;;;;7388858;19;20153;-77
2023/03/08 04:46:01;;;;;;;7.10;4.43;;;6.50;99.90;;;;;;7387721;19;20150;-76
2023/03/08 04:48:27;;;;;;;8.67;4.80;;;6.70;99.90;;;;;;7388758;19;20135;-77
2023/03/08 04:50:59;;;;;;;8.27;5.40;;;6.80;99.90;;;;;;7388816;19;20135;-76
2023/03/08 04:53:27;;;;;;;8.50;5.47;;;6.90;99.90;;;;;;7388819;19;20154;-75
2023/03/08 04:55:53;;;;;;;8.37;4.73;;;6.90;99.90;;;;;;7387569;19;20130;-76
2023/03/08 04:58:19;;;;;;;8.13;4.93;;;7.00;99.90;;;;;;7390569;19;20126;-76
2023/03/08 05:00:45;;;;;;;9.03;4.80;;;6.90;99.90;;;;;;7387559;19;20477;-76
2023/03/08 05:03:12;;;;;;;10.87;5.03;;;6.90;99.90;;;;;;7389029;19;20174;-76
2023/03/08 05:05:44;;;;;;;7.20;4.77;;;6.90;99.90;;;;;;7387005;19;20149;-76
2023/03/08 05:08:10;;;;;;;8.37;5.27;;;6.80;99.90;;;;;;7388427;19;20151;-75
2023/03/08 05:10:37;;;;;;;10.53;5.20;;;6.80;99.90;;;;;;7388154;19;20169;-76
2023/03/08 05:13:02;;;;;;;10.20;4.90;;;6.90;99.90;;;;;;7387214;19;20135;-75
2023/03/08 05:15:28;;;;;;;7.73;4.90;;;7.10;99.90;;;;;;7388374;19;20131;-76
2023/03/08 05:17:54;;;;;;;10.53;5.17;;;7.00;99.90;;;;;;7389361;19;20127;-76
2023/03/08 05:20:20;;;;;;;8.13;5.23;;;7.10;99.90;;;;;;7389947;19;20137;-74
2023/03/08 05:22:45;;;;;;;8.60;5.10;;;6.80;99.90;;;;;;7385587;19;20190;-76
2023/03/08 05:25:13;;;;;;;8.27;5.50;;;7.00;99.90;;;;;;7388842;19;20139;-76
2023/03/08 05:27:38;;;;;;;12.83;5.83;;;7.00;99.90;;;;;;7387479;19;20201;-75
2023/03/08 05:30:05;;;;;;;8.00;5.37;;;6.90;99.90;;;;;;7387785;19;20138;-76
2023/03/08 05:32:30;;;;;;;8.87;5.47;;;6.90;99.90;;;;;;7388680;19;20127;-76
2023/03/08 05:34:56;;;;;;;9.13;5.47;;;7.10;99.90;;;;;;7387020;19;20603;-75
2023/03/08 05:37:24;;;;;;;11.13;6.00;;;7.00;99.90;;;;;;7387181;19;20150;-76
2023/03/08 05:39:51;;;;;;;8.73;5.10;;;7.00;99.90;;;;;;7386368;19;20157;-77
2023/03/08 05:42:18;;;;;;;11.33;5.83;;;7.00;99.90;;;;;;7387667;19;20138;-76
2023/03/08 05:44:44;;;;;;;9.77;5.60;;;7.10;99.90;;;;;;7383009;19;20139;-76
2023/03/08 05:47:10;;;;;;;10.43;5.03;;;7.20;99.90;;;;;;7386183;19;20142;-75
2023/03/08 05:49:36;;;;;;;9.30;5.43;;;7.10;99.90;;;;;;7387657;19;20704;-76
2023/03/08 05:52:02;;;;;;;10.23;5.77;;;7.10;99.90;;;;;;7386369;19;20261;-75
2023/03/08 05:54:28;;;;;;;11.27;5.90;;;7.00;99.90;;;;;;7386610;19;20142;-76
2023/03/08 05:56:53;;;;;;;9.37;5.53;;;7.00;99.90;;;;;;7389615;19;20135;-77
2023/03/08 05:59:19;;;;;;;9.67;6.17;;;6.90;99.90;;;;;;7386027;19;20123;-76
2023/03/08 06:01:45;;;;;;;9.27;5.47;;;6.90;99.90;;;;;;7386468;19;20205;-76
2023/03/08 06:04:10;;;;;;;10.10;6.07;;;6.90;99.90;;;;;;7382656;19;20639;-76
2023/03/08 06:06:36;;;;;;;12.13;5.80;;;7.00;99.90;;;;;;7384551;19;20127;-76
2023/03/08 06:09:03;;;;;;;7.67;5.33;;;7.30;99.90;;;;;;7385876;19;20142;-76
2023/03/08 06:11:29;;;;;;;8.43;5.90;;;7.20;99.90;;;;;;7386930;19;20154;-76
2023/03/08 06:13:55;;;;;;;11.03;6.57;;;7.30;99.90;;;;;;7386400;19;20135;-76
2023/03/08 06:16:20;;;;;;;11.37;7.03;;;7.30;99.90;;;;;;7385917;19;20142;-75
2023/03/08 06:18:46;;;;;;;13.30;6.43;;;7.30;99.90;;;;;;7387426;19;20143;-77
2023/03/08 06:21:14;;;;;;;11.27;6.77;;;7.40;99.90;;;;;;7385261;19;20584;-76
2023/03/08 06:23:41;;;;;;;10.17;6.20;;;7.40;99.90;;;;;;7384432;19;20676;-75
2023/03/08 06:26:08;;;;;;;15.57;7.30;;;7.20;99.90;;;;;;7392924;19;20653;-77
2023/03/08 06:28:34;;;;;;;11.80;6.80;;;7.20;99.90;;;;;;7394744;19;20142;-77
2023/03/08 06:31:00;;;;;;;13.37;7.17;;;7.10;99.90;;;;;;7391247;19;20148;-76
2023/03/08 06:33:28;;;;;;;10.53;5.87;;;7.30;99.90;;;;;;7395040;19;20134;-75
2023/03/08 06:36:12;;;;;;;12.13;6.67;;;7.40;99.90;;;;;;7392185;19;20138;-76
2023/03/08 06:38:39;;;;;;;9.77;6.17;;;7.40;99.90;;;;;;7391685;19;20146;-76
2023/03/08 06:41:06;;;;;;;13.80;6.97;;;7.50;99.90;;;;;;7394417;19;20164;-76
2023/03/08 06:43:32;;;;;;;11.23;6.50;;;7.50;99.90;;;;;;7391692;19;20144;-75
2023/03/08 06:46:01;;;;;;;11.93;7.10;;;7.40;99.90;;;;;;7391492;19;20138;-75
2023/03/08 06:48:27;;;;;;;10.53;6.93;;;7.30;99.90;;;;;;7392528;19;20135;-75
2023/03/08 06:50:53;;;;;;;11.70;7.03;;;7.40;99.90;;;;;;7391454;19;20141;-79
2023/03/08 06:53:19;;;;;;;12.97;7.73;;;7.40;99.90;;;;;;7393293;19;20218;-76
2023/03/08 06:55:44;;;;;;;13.07;7.10;;;7.50;99.90;;;;;;7392909;19;20564;-76
2023/03/08 06:58:10;;;;;;;13.20;7.07;;;7.50;99.90;;;;;;7391673;19;20134;-77
2023/03/08 07:00:36;;;;;;;12.93;7.40;;;7.50;99.90;;;;;;7394410;19;20142;-75
2023/03/08 07:03:02;;;;;;;10.10;6.20;;;7.60;99.90;;;;;;7383889;19;20146;-74
2023/03/08 07:05:28;;;;;;;12.53;6.83;;;7.50;99.90;;;;;;7393727;19;20157;-75
2023/03/08 07:07:53;;;;;;;11.87;6.90;;;7.50;99.90;;;;;;7392784;19;20138;-76
2023/03/08 07:10:21;;;;;;;12.60;7.23;;;7.60;99.90;;;;;;7391462;19;20266;-74
2023/03/08 07:12:50;;;;;;;10.93;6.57;;;7.60;99.90;;;;;;7390455;19;20166;-75
2023/03/08 07:15:18;;;;;;;12.93;7.30;;;7.60;99.90;;;;;;7390105;19;20139;-76
2023/03/08 07:17:49;;;;;;;11.43;7.13;;;7.70;99.90;;;;;;7393052;19;20135;-76
2023/03/08 07:20:18;;;;;;;14.97;6.97;;;7.60;99.90;;;;;;7391435;19;20154;-75
2023/03/08 07:22:44;;;;;;;11.07;7.63;;;7.70;99.90;;;;;;7393468;19;20184;-74
2023/03/08 07:25:11;;;;;;;12.00;7.30;;;7.70;99.90;;;;;;7391358;19;20135;-74
2023/03/08 07:27:37;;;;;;;11.87;6.63;;;7.70;99.90;;;;;;7391704;19;20150;-75
2023/03/08 07:30:04;;;;;;;11.33;6.83;;;7.70;99.90;;;;;;7391471;19;20603;-75
2023/03/08 07:32:30;;;;;;;13.00;7.27;;;7.60;99.90;;;;;;7390106;19;20154;-75
2023/03/08 07:34:56;;;;;;;10.90;6.67;;;7.70;99.90;;;;;;7388456;19;20162;-74
2023/03/08 07:37:23;;;;;;;12.77;7.23;;;7.50;99.90;;;;;;7390021;19;20262;-74
2023/03/08 07:39:48;;;;;;;12.37;7.40;;;7.60;99.90;;;;;;7390179;19;20152;-74
2023/03/08 07:42:14;;;;;;;15.73;7.07;;;7.60;99.90;;;;;;7390378;19;20595;-74
2023/03/08 07:44:40;;;;;;;14.40;7.73;;;7.70;99.90;;;;;;7390909;19;20580;-76
2023/03/08 07:47:06;;;;;;;11.60;6.23;;;7.80;99.90;;;;;;7389598;19;20222;-74
2023/03/08 07:49:32;;;;;;;9.20;6.17;;;7.70;99.90;;;;;;7388864;19;20148;-75
2023/03/08 07:51:58;;;;;;;12.60;6.77;;;7.70;99.90;;;;;;7390282;19;20518;-75
2023/03/08 07:54:24;;;;;;;12.33;7.77;;;7.80;99.90;;;;;;7389173;19;20146;-73
2023/03/08 07:56:54;;;;;;;12.77;7.00;;;7.80;99.90;;;;;;7391431;19;20548;-75
2023/03/08 07:59:21;;;;;;;12.40;6.63;;;7.70;99.90;;;;;;7391433;19;20150;-75
2023/03/08 08:01:47;;;;;;;9.73;5.93;;;7.80;99.90;;;;;;7392014;19;20146;-75
2023/03/08 08:04:13;;;;;;;12.70;6.67;;;7.80;99.90;;;;;;7388203;19;20239;-75
2023/03/08 08:06:39;;;;;;;11.50;6.40;;;7.80;99.90;;;;;;7390649;19;20155;-76
2023/03/08 08:09:06;;;;;;;11.00;6.47;;;7.80;99.90;;;;;;7389250;19;20170;-75
2023/03/08 08:11:33;;;;;;;17.93;8.80;;;7.80;99.90;;;;;;7392600;19;20147;-74
2023/03/08 08:14:00;;;;;;;13.50;7.17;;;7.80;99.90;;;;;;7390601;19;20158;-75
2023/03/08 08:16:26;;;;;;;10.63;6.30;;;7.90;99.90;;;;;;7392969;19;20230;-75
2023/03/08 08:18:53;;;;;;;10.37;6.90;;;7.90;99.90;;;;;;7389052;19;20142;-74
2023/03/08 08:21:20;;;;;;;9.40;6.27;;;7.90;99.90;;;;;;7391207;19;20147;-75
2023/03/08 08:23:46;;;;;;;11.97;7.40;;;7.90;99.90;;;;;;7386409;19;20157;-74
2023/03/08 08:26:18;;;;;;;8.47;5.87;;;8.10;99.90;;;;;;7390890;19;20214;-75
2023/03/08 08:28:49;;;;;;;10.30;6.78;;;8.00;99.90;;;;;;7389175;19;20383;-76
2023/03/08 08:31:18;;;;;;;12.03;6.80;;;8.00;99.90;;;;;;7388818;19;20142;-76
2023/03/08 08:33:44;;;;;;;9.93;5.57;;;8.00;99.90;;;;;;7389698;19;20166;-75
2023/03/08 08:36:16;;;;;;;15.87;9.63;;;7.90;99.90;;;;;;7389460;19;20151;-75
2023/03/08 08:38:47;;;;;;;11.67;6.67;;;7.90;99.90;;;;;;7391866;19;20168;-75
2023/03/08 08:41:15;;;;;;;9.23;6.23;;;7.90;99.90;;;;;;7390098;19;20780;-77
2023/03/08 08:43:41;;;;;;;13.17;6.43;;;8.00;99.90;;;;;;7386935;19;20586;-76
2023/03/08 08:46:07;;;;;;;10.67;6.27;;;7.80;99.90;;;;;;7389223;19;20263;-76
2023/03/08 08:48:41;;;;;;;8.77;6.27;;;7.80;99.90;;;;;;7390609;19;20142;-76
2023/03/08 08:51:10;;;;;;;11.20;6.30;;;7.90;99.90;;;;;;7389089;19;20139;-76
2023/03/08 08:53:36;;;;;;;8.37;5.80;;;8.10;99.90;;;;;;7397308;19;20162;-75
2023/03/08 08:56:18;;;;;;;9.33;6.10;;;8.00;99.90;;;;;;7392226;19;20135;-76
2023/03/08 08:58:45;;;;;;;10.37;6.80;;;8.10;99.90;;;;;;7387655;19;20150;-75
2023/03/08 09:01:17;;;;;;;15.50;8.57;;;7.70;99.90;;;;;;7385647;19;20510;-77
2023/03/08 09:03:44;;;;;;;9.83;6.13;;;7.60;99.90;;;;;;7384889;19;20150;-75
2023/03/08 09:06:10;;;;;;;9.97;6.63;;;7.80;99.90;;;;;;7388066;19;20551;-73
2023/03/08 09:08:36;;;;;;;10.67;6.13;;;7.90;99.90;;;;;;7389638;19;20146;-76
2023/03/08 09:11:04;;;;;;;8.70;5.90;;;8.00;99.90;;;;;;7387168;19;20139;-76
2023/03/08 09:13:31;;;;;;;10.87;6.43;;;7.80;99.90;;;;;;7389559;19;20149;-76
2023/03/08 09:15:56;;;;;;;9.83;6.43;;;8.00;99.90;;;;;;7386916;19;20150;-76
2023/03/08 09:18:22;;;;;;;11.83;6.90;;;8.00;99.90;;;;;;7388641;19;20157;-76
2023/03/08 09:20:48;;;;;;;10.33;6.73;;;8.00;99.90;;;;;;7387290;19;20489;-76
2023/03/08 09:23:14;;;;;;;18.40;12.37;;;7.90;99.90;;;;;;7386749;19;20151;-76
2023/03/08 09:25:39;;;;;;;11.17;7.40;;;7.90;99.90;;;;;;7385959;19;20221;-75
2023/03/08 09:28:05;;;;;;;9.10;6.10;;;7.90;99.90;;;;;;7387377;19;20135;-75
2023/03/08 09:30:31;;;;;;;10.57;6.43;;;8.00;99.90;;;;;;7387873;19;20551;-77
2023/03/08 09:32:58;;;;;;;9.37;6.67;;;8.20;99.90;;;;;;7386204;19;20229;-74
2023/03/08 09:35:24;;;;;;;11.43;7.03;;;8.20;99.90;;;;;;7386829;19;20950;-76
2023/03/08 09:37:50;;;;;;;12.37;6.83;;;8.20;99.90;;;;;;7387114;19;20150;-75
2023/03/08 09:40:26;;;;;;;12.30;7.43;;;8.30;99.90;;;;;;7383729;19;20222;-75
2023/03/08 09:42:56;;;;;;;14.87;6.80;;;8.30;99.90;;;;;;7387815;19;20230;-74
2023/03/08 09:45:27;;;;;;;11.37;6.50;;;8.30;99.90;;;;;;7389869;19;20138;-74
2023/03/08 09:48:03;;;;;;;12.80;7.17;;;8.40;99.90;;;;;;7387477;19;20154;-75
2023/03/08 09:50:58;;;;;;;16.57;7.83;;;8.40;99.90;;;;;;7387158;19;20155;-75
2023/03/08 09:53:54;;;;;;;13.07;7.23;;;8.40;99.90;;;;;;7384802;19;20153;-76
2023/03/08 09:56:24;;;;;;;16.20;6.93;;;8.40;99.90;;;;;;7386137;19;20671;-76
2023/03/08 09:59:03;;;;;;;11.00;6.87;;;8.20;99.90;;;;;;7393713;19;20153;-76
2023/03/08 10:01:48;;;;;;;10.87;7.77;;;8.20;99.90;;;;;;7394140;19;20589;-75
2023/03/08 10:04:33;;;;;;;12.70;6.80;;;8.40;99.90;;;;;;7392192;19;20142;-75
2023/03/08 10:07:30;;;;;;;11.53;7.03;;;8.60;99.90;;;;;;7392066;19;20250;-74
2023/03/08 10:10:08;;;;;;;11.20;6.80;;;8.70;99.90;;;;;;7393502;19;20142;-75
2023/03/08 10:12:39;;;;;;;14.67;8.37;;;8.80;99.90;;;;;;7394697;19;20134;-76
2023/03/08 10:15:16;;;;;;;10.87;6.80;;;8.90;99.90;;;;;;7394821;19;20603;-74
2023/03/08 10:17:49;;;;;;;12.70;6.70;;;9.10;99.90;;;;;;7392482;19;20182;-76
2023/03/08 10:20:20;;;;;;;13.33;6.60;;;9.00;99.90;;;;;;7394639;19;20158;-76
2023/03/08 10:22:55;;;;;;;12.40;6.17;;;9.00;99.90;;;;;;7392678;19;20266;-75
2023/03/08 10:25:23;;;;;;;11.13;5.53;;;8.90;99.90;;;;;;7395831;19;20138;-75
2023/03/08 10:27:53;;;;;;;10.27;5.03;;;9.00;99.90;;;;;;7393165;19;20226;-76
2023/03/08 10:30:27;;;;;;;12.53;4.97;;;9.10;99.90;;;;;;7394678;19;20142;-75
2023/03/08 10:32:58;;;;;;;7.43;4.03;;;9.20;99.90;;;;;;7390975;19;20151;-75
2023/03/08 10:35:51;;;;;;;6.03;3.83;;;9.20;99.90;;;;;;7392158;19;20206;-75
2023/03/08 10:38:17;;;;;;;7.67;4.33;;;9.30;99.90;;;;;;7390967;19;20146;-76
2023/03/08 10:40:43;;;;;;;7.53;4.03;;;9.30;99.90;;;;;;7391586;19;20158;-77
2023/03/08 10:43:26;;;;;;;8.97;4.00;;;9.40;99.90;;;;;;7390222;19;20224;-76
2023/03/08 10:46:03;;;;;;;5.10;3.67;;;9.60;99.90;;;;;;7393641;19;20163;-75
2023/03/08 10:48:29;;;;;;;8.80;3.20;;;9.70;99.90;;;;;;7392165;19;20150;-74
2023/03/08 10:51:04;;;;;;;7.90;4.40;;;9.80;99.90;;;;;;7396903;19;20177;-74
2023/03/08 10:53:32;;;;;;;4.93;3.30;;;10.00;99.90;;;;;;7404618;19;20646;-75
2023/03/08 10:56:00;;;;;;;3.70;2.80;;;10.30;99.90;;;;;;7394746;19;20142;-76
2023/03/08 10:58:38;;;;;;;6.27;3.10;;;10.60;99.90;;;;;;7394019;19;20150;-76
2023/03/08 11:01:21;;;;;;;6.27;4.30;;;10.70;99.90;;;;;;7395481;19;20137;-76
2023/03/08 11:03:57;;;;;;;3.43;2.33;;;11.00;99.90;;;;;;7391479;19;20174;-75
2023/03/08 11:06:24;;;;;;;3.43;2.30;;;11.30;99.90;;;;;;7394335;19;20165;-76
2023/03/08 11:08:55;;;;;;;2.90;2.10;;;11.30;99.90;;;;;;7396250;19;20131;-74
2023/03/08 11:11:22;;;;;;;2.97;2.27;;;11.30;99.90;;;;;;7393742;19;20552;-75
2023/03/08 11:13:50;;;;;;;4.00;2.13;;;11.30;99.90;;;;;;7394107;19;20150;-76
2023/03/08 11:16:34;;;;;;;4.47;2.23;;;11.40;99.90;;;;;;7394906;19;20161;-75
2023/03/08 11:19:09;;;;;;;2.20;1.43;;;11.50;99.90;;;;;;7393765;19;20174;-76
2023/03/08 11:21:44;;;;;;;3.47;2.20;;;11.50;99.90;;;;;;7393293;19;20173;-75
2023/03/08 11:24:48;;;;;;;1.95;1.48;;;11.50;99.90;;;;;;7391534;19;20148;-76
2023/03/08 11:27:35;;;;;;;2.25;1.33;;;11.60;99.90;;;;;;7391873;19;20153;-77
2023/03/08 11:30:23;;;;;;;2.10;1.07;;;11.70;99.90;;;;;;7392318;19;20139;-75
2023/03/08 11:33:06;;;;;;;1.93;0.87;;;11.70;99.90;;;;;;7392800;19;20134;-76
2023/03/08 11:35:58;;;;;;;1.38;1.05;;;11.60;99.90;;;;;;7391780;19;20599;-76
2023/03/08 11:38:29;;;;;;;1.03;0.80;;;11.60;99.90;;;;;;7389848;19;20143;-76
2023/03/08 11:41:21;;;;;;;1.40;0.90;;;11.80;99.90;;;;;;7393546;19;20141;-76
2023/03/08 11:44:32;;;;;;;5.40;1.20;;;11.70;99.90;;;;;;7389547;19;20139;-76
2023/03/08 11:47:16;;;;;;;1.52;0.80;;;11.80;99.90;;;;;;7388724;19;20161;-75
2023/03/08 11:50:04;;;;;;;2.60;0.90;;;11.90;99.90;;;;;;7390339;19;20158;-75
2023/03/08 11:52:51;;;;;;;2.47;1.20;;;12.00;99.90;;;;;;7394293;19;20154;-76
2023/03/08 11:55:48;;;;;;;2.33;1.42;;;11.90;99.90;;;;;;7400747;19;20138;-77
2023/03/08 11:58:27;;;;;;;1.55;1.10;;;12.00;99.90;;;;;;7393901;19;20154;-77
2023/03/08 12:00:59;;;;;;;1.10;1.00;;;12.10;99.90;;;;;;7391283;19;20145;-77
2023/03/08 12:03:42;;;;;;;1.35;0.95;;;12.10;99.90;;;;;;7389397;19;20242;-78
2023/03/08 12:06:26;;;;;;;0.90;0.60;;;12.20;99.90;;;;;;7390366;19;20174;-79
2023/03/08 12:09:03;;;;;;;2.63;0.80;;;12.20;99.90;;;;;;7393304;19;20139;-79
2023/03/08 12:11:37;;;;;;;4.07;0.93;;;12.20;99.90;;;;;;7392024;19;20214;-77
2023/03/08 12:14:32;;;;;;;1.58;1.20;;;12.00;99.90;;;;;;7390228;19;20143;-76
2023/03/08 12:17:19;;;;;;;2.00;0.90;;;12.10;99.90;;;;;;7390888;19;20217;-77
2023/03/08 12:19:47;;;;;;;6.37;1.40;;;12.10;99.90;;;;;;7390173;19;20174;-75
2023/03/08 12:22:34;;;;;;;2.25;1.35;;;12.20;99.90;;;;;;7387419;19;20153;-77
2023/03/08 12:25:23;;;;;;;2.47;1.00;;;12.30;99.90;;;;;;7388964;19;20155;-76
2023/03/08 12:27:52;;;;;;;1.33;1.05;;;12.40;99.90;;;;;;7389906;19;20150;-76
2023/03/08 12:30:54;;;;;;;5.70;1.20;;;12.40;99.90;;;;;;7387068;19;20176;-77
2023/03/08 12:33:22;;;;;;;2.45;0.90;;;12.40;99.90;;;;;;7388899;19;20159;-77
2023/03/08 12:35:57;;;;;;;2.85;1.30;;;12.40;99.90;;;;;;7391557;19;20134;-77
2023/03/08 12:38:25;;;;;;;3.05;1.00;;;12.30;99.90;;;;;;7390919;19;20188;-76
2023/03/08 12:40:53;;;;;;;2.28;0.70;;;12.40;99.90;;;;;;7389874;19;20154;-77
2023/03/08 12:43:19;;;;;;;1.70;1.00;;;12.30;99.90;;;;;;7388242;19;20145;-77
2023/03/08 12:46:07;;;;;;;2.35;0.90;;;12.30;99.90;;;;;;7387350;19;20206;-76
2023/03/08 12:48:46;;;;;;;1.48;0.90;;;12.40;99.90;;;;;;7390724;19;20243;-76
2023/03/08 12:51:12;;;;;;;2.05;1.27;;;12.50;99.90;;;;;;7363334;19;20130;-77
2023/03/08 12:53:53;;;;;;;3.10;1.90;;;12.50;99.90;;;;;;7385450;19;20126;-76
2023/03/08 12:56:46;;;;;;;1.40;1.20;;;12.60;99.90;;;;;;7386553;19;20154;-76
2023/03/08 12:59:12;;;;;;;1.08;0.85;;;12.90;99.90;;;;;;7388110;19;20139;-75
2023/03/08 13:01:57;;;;;;;1.38;0.85;;;12.80;99.90;;;;;;7389208;19;20566;-76
2023/03/08 13:04:29;;;;;;;1.35;0.90;;;13.00;99.90;;;;;;7387637;19;20157;-77